sensor_id;sensor_type;location;lat;lon;timestamp;pressure;altitude;pressure_sealevel;temperature;humidity
41862;BME280;27537;57.134;-2.136;2023-10-13T00:00:48;99200.13;;;9.98;100.00
41862;BME280;27537;57.134;-2.136;2023-10-13T00:03:15;99201.41;;;9.91;100.00
41862;BME280;27537;57.134;-2.136;2023-10-13T00:05:43;99202.56;;;10.15;100.00
41862;BME280;27537;57.134;-2.136;2023-10-13T00:08:11;99203.22;;;10.19;100.00
41862;BME280;27537;57.134;-2.136;2023-10-13T00:10:38;99176.22;;;10.04;100.00
41862;BME280;27537;57.134;-2.136;2023-10-13T00:13:04;99178.53;;;9.80;100.00
41862;BME280;27537;57.134;-2.136;2023-10-13T00:15:44;99171.75;;;10.06;100.00
41862;BME280;27537;57.134;-2.136;2023-10-13T00:18:31;99171.25;;;9.99;100.00
41862;BME280;27537;57.134;-2.136;2023-10-13T00:21:03;99162.75;;;9.96;100.00
41862;BME280;27537;57.134;-2.136;2023-10-13T00:23:43;99154.63;;;9.86;100.00
41862;BME280;27537;57.134;-2.136;2023-10-13T00:26:24;99149.94;;;9.77;100.00
41862;BME280;27537;57.134;-2.136;2023-10-13T00:28:55;99158.53;;;9.93;100.00
41862;BME280;27537;57.134;-2.136;2023-10-13T00:31:27;99152.47;;;9.93;100.00
41862;BME280;27537;57.134;-2.136;2023-10-13T00:34:00;99156.13;;;10.04;100.00
41862;BME280;27537;57.134;-2.136;2023-10-13T00:36:36;99150.69;;;9.93;100.00
41862;BME280;27537;57.134;-2.136;2023-10-13T00:39:03;99128.19;;;9.62;100.00
41862;BME280;27537;57.134;-2.136;2023-10-13T00:41:33;99146.69;;;10.02;100.00
41862;BME280;27537;57.134;-2.136;2023-10-13T00:44:19;99139.50;;;9.91;100.00
41862;BME280;27537;57.134;-2.136;2023-10-13T00:46:55;99138.47;;;9.79;100.00
41862;BME280;27537;57.134;-2.136;2023-10-13T00:49:23;99116.44;;;9.69;100.00
41862;BME280;27537;57.134;-2.136;2023-10-13T00:51:51;99128.13;;;9.92;100.00
41862;BME280;27537;57.134;-2.136;2023-10-13T00:54:18;99117.28;;;9.98;100.00
41862;BME280;27537;57.134;-2.136;2023-10-13T00:56:54;99100.47;;;10.02;100.00
41862;BME280;27537;57.134;-2.136;2023-10-13T00:59:30;99111.28;;;10.11;100.00
41862;BME280;27537;57.134;-2.136;2023-10-13T01:02:03;99100.56;;;10.01;100.00
41862;BME280;27537;57.134;-2.136;2023-10-13T01:04:49;99074.06;;;9.93;100.00
41862;BME280;27537;57.134;-2.136;2023-10-13T01:07:16;99085.81;;;10.00;100.00
41862;BME280;27537;57.134;-2.136;2023-10-13T01:09:43;99093.56;;;9.87;100.00
41862;BME280;27537;57.134;-2.136;2023-10-13T01:12:10;99084.41;;;10.08;100.00
41862;BME280;27537;57.134;-2.136;2023-10-13T01:14:37;99082.19;;;9.88;100.00
41862;BME280;27537;57.134;-2.136;2023-10-13T01:17:04;99081.31;;;10.02;100.00
41862;BME280;27537;57.134;-2.136;2023-10-13T01:19:38;99086.66;;;10.15;100.00
41862;BME280;27537;57.134;-2.136;2023-10-13T01:22:12;99074.13;;;10.05;100.00
41862;BME280;27537;57.134;-2.136;2023-10-13T01:24:39;99070.13;;;10.00;100.00
41862;BME280;27537;57.134;-2.136;2023-10-13T01:27:07;99074.78;;;10.09;100.00
41862;BME280;27537;57.134;-2.136;2023-10-13T01:29:52;99065.72;;;10.15;100.00
41862;BME280;27537;57.134;-2.136;2023-10-13T01:32:36;99069.28;;;9.99;100.00
41862;BME280;27537;57.134;-2.136;2023-10-13T01:35:12;99064.72;;;9.88;100.00
41862;BME280;27537;57.134;-2.136;2023-10-13T01:37:38;99062.94;;;10.03;100.00
41862;BME280;27537;57.134;-2.136;2023-10-13T01:40:05;99053.31;;;9.89;100.00
41862;BME280;27537;57.134;-2.136;2023-10-13T01:42:32;99054.47;;;9.71;100.00
41862;BME280;27537;57.134;-2.136;2023-10-13T01:44:59;99037.53;;;9.91;100.00
41862;BME280;27537;57.134;-2.136;2023-10-13T01:47:32;99042.78;;;9.91;100.00
41862;BME280;27537;57.134;-2.136;2023-10-13T01:50:03;99035.50;;;9.82;100.00
41862;BME280;27537;57.134;-2.136;2023-10-13T01:52:40;99018.03;;;9.82;100.00
41862;BME280;27537;57.134;-2.136;2023-10-13T01:55:10;99011.41;;;9.91;100.00
41862;BME280;27537;57.134;-2.136;2023-10-13T01:57:38;99013.94;;;9.64;100.00
41862;BME280;27537;57.134;-2.136;2023-10-13T02:00:07;99004.22;;;9.80;100.00
41862;BME280;27537;57.134;-2.136;2023-10-13T02:02:46;99011.63;;;9.88;100.00
41862;BME280;27537;57.134;-2.136;2023-10-13T02:05:16;99018.59;;;9.87;100.00
41862;BME280;27537;57.134;-2.136;2023-10-13T02:07:43;98995.19;;;9.57;100.00
41862;BME280;27537;57.134;-2.136;2023-10-13T02:10:13;99002.94;;;9.73;100.00
41862;BME280;27537;57.134;-2.136;2023-10-13T02:12:40;98994.72;;;9.65;100.00
41862;BME280;27537;57.134;-2.136;2023-10-13T02:15:11;99006.28;;;9.61;100.00
41862;BME280;27537;57.134;-2.136;2023-10-13T02:18:00;98991.53;;;9.45;100.00
41862;BME280;27537;57.134;-2.136;2023-10-13T02:20:27;98990.72;;;9.45;100.00
41862;BME280;27537;57.134;-2.136;2023-10-13T02:22:57;98980.25;;;9.45;100.00
41862;BME280;27537;57.134;-2.136;2023-10-13T02:25:23;98955.63;;;9.35;100.00
41862;BME280;27537;57.134;-2.136;2023-10-13T02:28:03;98974.56;;;9.67;100.00
41862;BME280;27537;57.134;-2.136;2023-10-13T02:30:44;98967.94;;;9.47;100.00
41862;BME280;27537;57.134;-2.136;2023-10-13T02:33:12;98946.88;;;9.36;100.00
41862;BME280;27537;57.134;-2.136;2023-10-13T02:35:39;98953.88;;;9.49;100.00
41862;BME280;27537;57.134;-2.136;2023-10-13T02:38:16;98946.69;;;9.53;100.00
41862;BME280;27537;57.134;-2.136;2023-10-13T02:40:54;98951.25;;;9.35;100.00
41862;BME280;27537;57.134;-2.136;2023-10-13T02:43:22;98942.31;;;9.25;100.00
41862;BME280;27537;57.134;-2.136;2023-10-13T02:45:54;98935.31;;;9.25;100.00
41862;BME280;27537;57.134;-2.136;2023-10-13T02:48:25;98932.41;;;9.44;100.00
41862;BME280;27537;57.134;-2.136;2023-10-13T02:50:57;98921.78;;;9.19;100.00
41862;BME280;27537;57.134;-2.136;2023-10-13T02:53:28;98902.09;;;9.13;100.00
41862;BME280;27537;57.134;-2.136;2023-10-13T02:55:55;98909.56;;;9.34;100.00
41862;BME280;27537;57.134;-2.136;2023-10-13T02:58:25;98910.22;;;9.37;100.00
41862;BME280;27537;57.134;-2.136;2023-10-13T03:01:01;98900.22;;;9.29;100.00
41862;BME280;27537;57.134;-2.136;2023-10-13T03:03:30;98898.47;;;9.16;100.00
41862;BME280;27537;57.134;-2.136;2023-10-13T03:05:58;98894.81;;;9.32;100.00
41862;BME280;27537;57.134;-2.136;2023-10-13T03:08:26;98889.28;;;9.52;100.00
41862;BME280;27537;57.134;-2.136;2023-10-13T03:10:53;98885.47;;;9.43;100.00
41862;BME280;27537;57.134;-2.136;2023-10-13T03:13:21;98879.69;;;9.52;100.00
41862;BME280;27537;57.134;-2.136;2023-10-13T03:15:48;98871.59;;;9.42;100.00
41862;BME280;27537;57.134;-2.136;2023-10-13T03:18:14;98866.78;;;9.49;100.00
41862;BME280;27537;57.134;-2.136;2023-10-13T03:20:45;98834.09;;;9.29;100.00
41862;BME280;27537;57.134;-2.136;2023-10-13T03:23:17;98865.84;;;9.23;100.00
41862;BME280;27537;57.134;-2.136;2023-10-13T03:25:43;98866.72;;;9.36;100.00
41862;BME280;27537;57.134;-2.136;2023-10-13T03:28:10;98809.50;;;9.04;100.00
41862;BME280;27537;57.134;-2.136;2023-10-13T03:30:40;98826.53;;;9.39;100.00
41862;BME280;27537;57.134;-2.136;2023-10-13T03:33:10;98837.28;;;9.61;100.00
41862;BME280;27537;57.134;-2.136;2023-10-13T03:35:39;98813.34;;;9.55;100.00
41862;BME280;27537;57.134;-2.136;2023-10-13T03:38:10;98810.47;;;9.45;100.00
41862;BME280;27537;57.134;-2.136;2023-10-13T03:40:50;98793.50;;;9.38;100.00
41862;BME280;27537;57.134;-2.136;2023-10-13T03:43:34;98794.16;;;9.41;100.00
41862;BME280;27537;57.134;-2.136;2023-10-13T03:46:12;98772.69;;;9.09;100.00
41862;BME280;27537;57.134;-2.136;2023-10-13T03:48:39;98760.19;;;9.14;100.00
41862;BME280;27537;57.134;-2.136;2023-10-13T03:51:22;98783.28;;;9.20;100.00
41862;BME280;27537;57.134;-2.136;2023-10-13T03:53:57;98770.72;;;9.12;100.00
41862;BME280;27537;57.134;-2.136;2023-10-13T03:56:26;98767.19;;;8.99;100.00
41862;BME280;27537;57.134;-2.136;2023-10-13T03:59:13;98754.06;;;9.01;100.00
41862;BME280;27537;57.134;-2.136;2023-10-13T04:01:43;98746.41;;;8.98;100.00
41862;BME280;27537;57.134;-2.136;2023-10-13T04:04:14;98744.25;;;9.04;100.00
41862;BME280;27537;57.134;-2.136;2023-10-13T04:06:42;98746.03;;;9.04;100.00
41862;BME280;27537;57.134;-2.136;2023-10-13T04:09:19;98738.97;;;8.91;100.00
41862;BME280;27537;57.134;-2.136;2023-10-13T04:12:02;98736.63;;;8.87;100.00
41862;BME280;27537;57.134;-2.136;2023-10-13T04:14:31;98722.66;;;8.88;100.00
41862;BME280;27537;57.134;-2.136;2023-10-13T04:17:17;98710.53;;;8.87;100.00
41862;BME280;27537;57.134;-2.136;2023-10-13T04:19:56;98715.38;;;8.93;100.00
41862;BME280;27537;57.134;-2.136;2023-10-13T04:22:40;98672.38;;;8.71;100.00
41862;BME280;27537;57.134;-2.136;2023-10-13T04:25:27;98708.38;;;8.93;100.00
41862;BME280;27537;57.134;-2.136;2023-10-13T04:28:14;98702.63;;;8.88;100.00
41862;BME280;27537;57.134;-2.136;2023-10-13T04:30:45;98698.78;;;8.94;100.00
41862;BME280;27537;57.134;-2.136;2023-10-13T04:33:29;98696.03;;;8.83;100.00
41862;BME280;27537;57.134;-2.136;2023-10-13T04:36:06;98693.78;;;8.91;100.00
41862;BME280;27537;57.134;-2.136;2023-10-13T04:38:43;98670.28;;;8.91;100.00
41862;BME280;27537;57.134;-2.136;2023-10-13T04:41:31;98673.88;;;9.03;100.00
41862;BME280;27537;57.134;-2.136;2023-10-13T04:44:09;98666.16;;;9.01;100.00
41862;BME280;27537;57.134;-2.136;2023-10-13T04:47:14;98665.94;;;8.77;100.00
41862;BME280;27537;57.134;-2.136;2023-10-13T04:49:45;98637.69;;;8.84;100.00
41862;BME280;27537;57.134;-2.136;2023-10-13T04:52:15;98634.25;;;8.69;100.00
41862;BME280;27537;57.134;-2.136;2023-10-13T04:55:01;98639.00;;;8.77;100.00
41862;BME280;27537;57.134;-2.136;2023-10-13T04:57:46;98630.41;;;8.89;100.00
41862;BME280;27537;57.134;-2.136;2023-10-13T05:00:16;98625.28;;;8.87;100.00
41862;BME280;27537;57.134;-2.136;2023-10-13T05:02:46;98619.19;;;8.87;100.00
41862;BME280;27537;57.134;-2.136;2023-10-13T05:05:32;98600.81;;;8.76;100.00
41862;BME280;27537;57.134;-2.136;2023-10-13T05:08:17;98604.19;;;8.90;100.00
41862;BME280;27537;57.134;-2.136;2023-10-13T05:11:05;98584.53;;;8.85;100.00
41862;BME280;27537;57.134;-2.136;2023-10-13T05:13:50;98597.84;;;8.95;100.00
41862;BME280;27537;57.134;-2.136;2023-10-13T05:16:35;98593.25;;;8.98;100.00
41862;BME280;27537;57.134;-2.136;2023-10-13T05:19:21;98593.56;;;8.93;100.00
41862;BME280;27537;57.134;-2.136;2023-10-13T05:22:06;98576.75;;;8.98;100.00
41862;BME280;27537;57.134;-2.136;2023-10-13T05:24:51;98573.00;;;8.89;100.00
41862;BME280;27537;57.134;-2.136;2023-10-13T05:27:36;98563.91;;;8.95;100.00
41862;BME280;27537;57.134;-2.136;2023-10-13T05:30:21;98556.31;;;9.04;100.00
41862;BME280;27537;57.134;-2.136;2023-10-13T05:33:06;98548.75;;;8.87;100.00
41862;BME280;27537;57.134;-2.136;2023-10-13T05:35:52;98544.78;;;8.94;100.00
41862;BME280;27537;57.134;-2.136;2023-10-13T05:38:37;98548.34;;;8.93;100.00
41862;BME280;27537;57.134;-2.136;2023-10-13T05:41:22;98562.56;;;8.89;100.00
41862;BME280;27537;57.134;-2.136;2023-10-13T05:44:07;98559.22;;;9.00;100.00
41862;BME280;27537;57.134;-2.136;2023-10-13T05:47:05;98547.47;;;8.80;100.00
41862;BME280;27537;57.134;-2.136;2023-10-13T05:50:11;98552.13;;;8.89;100.00
41862;BME280;27537;57.134;-2.136;2023-10-13T05:52:49;98551.25;;;8.88;100.00
41862;BME280;27537;57.134;-2.136;2023-10-13T05:55:25;98552.84;;;8.91;100.00
41862;BME280;27537;57.134;-2.136;2023-10-13T05:58:10;98552.41;;;8.84;100.00
41862;BME280;27537;57.134;-2.136;2023-10-13T06:00:56;98558.91;;;9.04;100.00
41862;BME280;27537;57.134;-2.136;2023-10-13T06:03:41;98550.53;;;8.99;100.00
41862;BME280;27537;57.134;-2.136;2023-10-13T06:06:26;98550.53;;;8.86;100.00
41862;BME280;27537;57.134;-2.136;2023-10-13T06:09:12;98542.56;;;8.75;100.00
41862;BME280;27537;57.134;-2.136;2023-10-13T06:11:57;98546.56;;;8.93;100.00
41862;BME280;27537;57.134;-2.136;2023-10-13T06:14:46;98559.44;;;8.97;100.00
41862;BME280;27537;57.134;-2.136;2023-10-13T06:17:31;98565.25;;;8.87;100.00
41862;BME280;27537;57.134;-2.136;2023-10-13T06:20:17;98554.66;;;8.76;100.00
41862;BME280;27537;57.134;-2.136;2023-10-13T06:23:02;98554.34;;;8.68;100.00
41862;BME280;27537;57.134;-2.136;2023-10-13T06:25:51;98544.97;;;8.78;100.00
41862;BME280;27537;57.134;-2.136;2023-10-13T06:28:36;98543.09;;;8.80;100.00
41862;BME280;27537;57.134;-2.136;2023-10-13T06:31:12;98542.25;;;8.80;100.00
41862;BME280;27537;57.134;-2.136;2023-10-13T06:33:49;98527.66;;;8.77;100.00
41862;BME280;27537;57.134;-2.136;2023-10-13T06:36:15;98532.97;;;8.76;100.00
41862;BME280;27537;57.134;-2.136;2023-10-13T06:38:44;98528.03;;;8.71;100.00
41862;BME280;27537;57.134;-2.136;2023-10-13T06:41:11;98515.53;;;8.76;100.00
41862;BME280;27537;57.134;-2.136;2023-10-13T06:43:46;98511.03;;;8.78;100.00
41862;BME280;27537;57.134;-2.136;2023-10-13T06:46:27;98518.66;;;8.81;100.00
41862;BME280;27537;57.134;-2.136;2023-10-13T06:48:55;98518.53;;;8.70;100.00
41862;BME280;27537;57.134;-2.136;2023-10-13T06:51:26;98503.63;;;8.72;100.00
41862;BME280;27537;57.134;-2.136;2023-10-13T06:53:58;98497.78;;;8.81;100.00
41862;BME280;27537;57.134;-2.136;2023-10-13T06:56:25;98499.97;;;8.74;100.00
41862;BME280;27537;57.134;-2.136;2023-10-13T06:58:55;98512.22;;;8.87;100.00
41862;BME280;27537;57.134;-2.136;2023-10-13T07:01:31;98500.81;;;8.75;100.00
41862;BME280;27537;57.134;-2.136;2023-10-13T07:04:09;98522.53;;;8.88;100.00
41862;BME280;27537;57.134;-2.136;2023-10-13T07:06:43;98516.84;;;8.96;100.00
41862;BME280;27537;57.134;-2.136;2023-10-13T07:09:16;98504.50;;;8.85;100.00
41862;BME280;27537;57.134;-2.136;2023-10-13T07:12:06;98508.06;;;8.97;100.00
41862;BME280;27537;57.134;-2.136;2023-10-13T07:14:52;98506.50;;;8.95;100.00
41862;BME280;27537;57.134;-2.136;2023-10-13T07:17:20;98498.25;;;9.01;100.00
41862;BME280;27537;57.134;-2.136;2023-10-13T07:19:54;98498.56;;;8.96;100.00
41862;BME280;27537;57.134;-2.136;2023-10-13T07:22:23;98494.56;;;8.90;100.00
41862;BME280;27537;57.134;-2.136;2023-10-13T07:24:50;98488.44;;;9.04;100.00
41862;BME280;27537;57.134;-2.136;2023-10-13T07:27:20;98483.13;;;9.06;100.00
41862;BME280;27537;57.134;-2.136;2023-10-13T07:29:51;98470.16;;;9.04;100.00
41862;BME280;27537;57.134;-2.136;2023-10-13T07:32:41;98478.22;;;9.14;100.00
41862;BME280;27537;57.134;-2.136;2023-10-13T07:35:18;98492.63;;;9.20;100.00
41862;BME280;27537;57.134;-2.136;2023-10-13T07:37:51;98497.13;;;9.18;100.00
41862;BME280;27537;57.134;-2.136;2023-10-13T07:40:22;98490.41;;;9.13;100.00
41862;BME280;27537;57.134;-2.136;2023-10-13T07:43:09;98494.41;;;9.32;100.00
41862;BME280;27537;57.134;-2.136;2023-10-13T07:45:38;98484.16;;;9.29;100.00
41862;BME280;27537;57.134;-2.136;2023-10-13T07:48:10;98488.88;;;9.37;100.00
41862;BME280;27537;57.134;-2.136;2023-10-13T07:51:02;98478.00;;;9.43;100.00
41862;BME280;27537;57.134;-2.136;2023-10-13T07:53:30;98481.16;;;9.35;100.00
41862;BME280;27537;57.134;-2.136;2023-10-13T07:56:07;98465.88;;;9.42;100.00
41862;BME280;27537;57.134;-2.136;2023-10-13T07:58:39;98475.25;;;9.57;100.00
41862;BME280;27537;57.134;-2.136;2023-10-13T08:01:19;98480.69;;;9.54;100.00
41862;BME280;27537;57.134;-2.136;2023-10-13T08:03:46;98481.22;;;9.59;100.00
41862;BME280;27537;57.134;-2.136;2023-10-13T08:06:17;98477.03;;;9.69;100.00
41862;BME280;27537;57.134;-2.136;2023-10-13T08:08:47;98452.47;;;9.59;100.00
41862;BME280;27537;57.134;-2.136;2023-10-13T08:11:20;98472.06;;;9.91;100.00
41862;BME280;27537;57.134;-2.136;2023-10-13T08:13:54;98471.97;;;10.16;100.00
41862;BME280;27537;57.134;-2.136;2023-10-13T08:16:33;98472.09;;;10.15;100.00
41862;BME280;27537;57.134;-2.136;2023-10-13T08:19:14;98473.88;;;10.14;100.00
41862;BME280;27537;57.134;-2.136;2023-10-13T08:21:44;98466.97;;;10.13;100.00
41862;BME280;27537;57.134;-2.136;2023-10-13T08:24:48;98454.13;;;10.10;100.00
41862;BME280;27537;57.134;-2.136;2023-10-13T08:27:20;98452.78;;;10.29;100.00
41862;BME280;27537;57.134;-2.136;2023-10-13T08:30:15;98452.50;;;10.33;100.00
41862;BME280;27537;57.134;-2.136;2023-10-13T08:32:56;98448.28;;;10.31;100.00
41862;BME280;27537;57.134;-2.136;2023-10-13T08:35:25;98443.00;;;10.19;100.00
41862;BME280;27537;57.134;-2.136;2023-10-13T08:37:52;98440.78;;;10.26;100.00
41862;BME280;27537;57.134;-2.136;2023-10-13T08:40:22;98440.72;;;10.15;100.00
41862;BME280;27537;57.134;-2.136;2023-10-13T08:43:10;98428.97;;;10.20;100.00
41862;BME280;27537;57.134;-2.136;2023-10-13T08:45:41;98433.84;;;10.38;100.00
41862;BME280;27537;57.134;-2.136;2023-10-13T08:48:11;98413.72;;;10.14;100.00
41862;BME280;27537;57.134;-2.136;2023-10-13T08:50:49;98392.75;;;10.27;100.00
41862;BME280;27537;57.134;-2.136;2023-10-13T08:56:02;98406.28;;;10.21;100.00
41862;BME280;27537;57.134;-2.136;2023-10-13T08:58:47;98391.13;;;10.37;100.00
41862;BME280;27537;57.134;-2.136;2023-10-13T09:01:28;98386.75;;;10.38;100.00
41862;BME280;27537;57.134;-2.136;2023-10-13T09:04:17;98387.28;;;10.30;100.00
41862;BME280;27537;57.134;-2.136;2023-10-13T09:06:46;98378.06;;;10.37;100.00
41862;BME280;27537;57.134;-2.136;2023-10-13T09:09:32;98386.41;;;10.42;100.00
41862;BME280;27537;57.134;-2.136;2023-10-13T09:12:11;98376.44;;;10.48;100.00
41862;BME280;27537;57.134;-2.136;2023-10-13T09:14:39;98394.22;;;10.67;100.00
41862;BME280;27537;57.134;-2.136;2023-10-13T09:17:12;98383.53;;;10.70;100.00
41862;BME280;27537;57.134;-2.136;2023-10-13T09:19:47;98385.97;;;10.60;100.00
41862;BME280;27537;57.134;-2.136;2023-10-13T09:22:22;98366.72;;;10.61;100.00
41862;BME280;27537;57.134;-2.136;2023-10-13T09:25:03;98383.75;;;10.78;100.00
41862;BME280;27537;57.134;-2.136;2023-10-13T09:27:32;98383.31;;;10.84;100.00
41862;BME280;27537;57.134;-2.136;2023-10-13T09:30:01;98391.53;;;11.02;100.00
41862;BME280;27537;57.134;-2.136;2023-10-13T09:32:36;98378.09;;;11.18;100.00
41862;BME280;27537;57.134;-2.136;2023-10-13T09:35:17;98386.28;;;11.36;100.00
41862;BME280;27537;57.134;-2.136;2023-10-13T09:37:45;98390.69;;;11.47;100.00
41862;BME280;27537;57.134;-2.136;2023-10-13T09:40:18;98390.78;;;11.68;100.00
41862;BME280;27537;57.134;-2.136;2023-10-13T09:43:01;98385.59;;;12.00;100.00
41862;BME280;27537;57.134;-2.136;2023-10-13T09:45:35;98386.56;;;11.99;100.00
41862;BME280;27537;57.134;-2.136;2023-10-13T09:48:21;98385.47;;;12.13;100.00
41862;BME280;27537;57.134;-2.136;2023-10-13T09:50:54;98376.25;;;12.19;100.00
41862;BME280;27537;57.134;-2.136;2023-10-13T09:53:25;98366.50;;;12.09;100.00
41862;BME280;27537;57.134;-2.136;2023-10-13T09:56:05;98327.03;;;12.32;100.00
41862;BME280;27537;57.134;-2.136;2023-10-13T09:58:48;98333.63;;;12.47;100.00
41862;BME280;27537;57.134;-2.136;2023-10-13T10:01:23;98349.31;;;12.38;100.00
41862;BME280;27537;57.134;-2.136;2023-10-13T10:04:11;98337.25;;;12.98;100.00
41862;BME280;27537;57.134;-2.136;2023-10-13T10:06:56;98349.56;;;13.07;100.00
41862;BME280;27537;57.134;-2.136;2023-10-13T10:09:30;98349.41;;;12.78;100.00
41862;BME280;27537;57.134;-2.136;2023-10-13T10:12:23;98333.41;;;12.81;100.00
41862;BME280;27537;57.134;-2.136;2023-10-13T10:17:41;98340.94;;;12.65;100.00
41862;BME280;27537;57.134;-2.136;2023-10-13T10:20:09;98359.69;;;12.60;100.00
41862;BME280;27537;57.134;-2.136;2023-10-13T10:22:56;98365.50;;;12.43;100.00
41862;BME280;27537;57.134;-2.136;2023-10-13T10:25:33;98355.13;;;12.62;100.00
41862;BME280;27537;57.134;-2.136;2023-10-13T10:28:07;98352.81;;;12.90;100.00
41862;BME280;27537;57.134;-2.136;2023-10-13T10:30:37;98354.16;;;13.15;100.00
41862;BME280;27537;57.134;-2.136;2023-10-13T10:33:05;98351.16;;;13.20;100.00
41862;BME280;27537;57.134;-2.136;2023-10-13T10:35:40;98354.28;;;13.14;100.00
41862;BME280;27537;57.134;-2.136;2023-10-13T10:38:16;98344.69;;;12.93;100.00
41862;BME280;27537;57.134;-2.136;2023-10-13T10:43:28;98333.66;;;12.78;100.00
41862;BME280;27537;57.134;-2.136;2023-10-13T10:46:18;98326.28;;;12.93;100.00
41862;BME280;27537;57.134;-2.136;2023-10-13T10:48:51;98329.34;;;12.98;100.00
41862;BME280;27537;57.134;-2.136;2023-10-13T10:51:22;98328.94;;;13.03;100.00
41862;BME280;27537;57.134;-2.136;2023-10-13T10:53:54;98320.28;;;13.12;100.00
41862;BME280;27537;57.134;-2.136;2023-10-13T10:56:26;98340.56;;;13.00;100.00
41862;BME280;27537;57.134;-2.136;2023-10-13T10:59:05;98313.59;;;12.98;100.00
41862;BME280;27537;57.134;-2.136;2023-10-13T11:01:32;98316.09;;;13.00;100.00
41862;BME280;27537;57.134;-2.136;2023-10-13T11:04:06;98317.22;;;13.38;100.00
41862;BME280;27537;57.134;-2.136;2023-10-13T11:06:55;98308.41;;;13.18;100.00
41862;BME280;27537;57.134;-2.136;2023-10-13T11:09:28;98302.22;;;13.28;100.00
41862;BME280;27537;57.134;-2.136;2023-10-13T11:17:27;98276.53;;;13.42;100.00
41862;BME280;27537;57.134;-2.136;2023-10-13T11:20:12;98295.25;;;13.68;100.00
41862;BME280;27537;57.134;-2.136;2023-10-13T11:22:47;98288.16;;;13.49;100.00
41862;BME280;27537;57.134;-2.136;2023-10-13T11:27:49;98288.47;;;13.65;100.00
41862;BME280;27537;57.134;-2.136;2023-10-13T11:30:19;98271.03;;;13.55;100.00
41862;BME280;27537;57.134;-2.136;2023-10-13T11:33:00;98259.13;;;13.51;100.00
41862;BME280;27537;57.134;-2.136;2023-10-13T11:35:30;98263.16;;;13.64;100.00
41862;BME280;27537;57.134;-2.136;2023-10-13T11:38:15;98273.78;;;13.63;100.00
41862;BME280;27537;57.134;-2.136;2023-10-13T11:40:59;98282.41;;;13.75;98.23
41862;BME280;27537;57.134;-2.136;2023-10-13T11:43:36;98270.50;;;13.51;98.94
41862;BME280;27537;57.134;-2.136;2023-10-13T11:46:13;98257.72;;;13.37;100.00
41862;BME280;27537;57.134;-2.136;2023-10-13T11:48:45;98266.44;;;13.37;100.00
41862;BME280;27537;57.134;-2.136;2023-10-13T11:51:14;98264.78;;;13.36;100.00
41862;BME280;27537;57.134;-2.136;2023-10-13T11:53:50;98254.25;;;13.36;100.00
41862;BME280;27537;57.134;-2.136;2023-10-13T11:56:20;98262.31;;;13.64;100.00
41862;BME280;27537;57.134;-2.136;2023-10-13T11:58:47;98260.94;;;13.50;100.00
41862;BME280;27537;57.134;-2.136;2023-10-13T12:01:15;98269.81;;;13.78;95.52
41862;BME280;27537;57.134;-2.136;2023-10-13T12:03:47;98236.44;;;13.50;94.98
41862;BME280;27537;57.134;-2.136;2023-10-13T12:06:35;98268.28;;;13.76;96.74
41862;BME280;27537;57.134;-2.136;2023-10-13T12:09:14;98269.81;;;13.78;97.03
41862;BME280;27537;57.134;-2.136;2023-10-13T12:11:48;98279.63;;;13.76;92.58
41862;BME280;27537;57.134;-2.136;2023-10-13T12:14:18;98282.53;;;13.83;93.35
41862;BME280;27537;57.134;-2.136;2023-10-13T12:17:04;98281.44;;;13.85;91.52
41862;BME280;27537;57.134;-2.136;2023-10-13T12:19:31;98285.72;;;13.96;89.58
41862;BME280;27537;57.134;-2.136;2023-10-13T12:21:58;98274.06;;;14.18;91.10
41862;BME280;27537;57.134;-2.136;2023-10-13T12:24:31;98273.53;;;13.95;87.98
41862;BME280;27537;57.134;-2.136;2023-10-13T12:27:04;98273.22;;;14.18;85.59
41862;BME280;27537;57.134;-2.136;2023-10-13T12:29:46;98282.38;;;14.14;80.42
41862;BME280;27537;57.134;-2.136;2023-10-13T12:32:13;98261.19;;;14.15;82.62
41862;BME280;27537;57.134;-2.136;2023-10-13T12:34:41;98255.38;;;14.12;80.61
41862;BME280;27537;57.134;-2.136;2023-10-13T12:37:28;98250.78;;;14.23;80.71
41862;BME280;27537;57.134;-2.136;2023-10-13T12:40:16;98249.91;;;14.42;81.89
41862;BME280;27537;57.134;-2.136;2023-10-13T12:43:03;98264.59;;;14.35;80.33
41862;BME280;27537;57.134;-2.136;2023-10-13T12:45:50;98257.88;;;14.13;81.36
41862;BME280;27537;57.134;-2.136;2023-10-13T12:48:37;98258.69;;;14.14;81.66
41862;BME280;27537;57.134;-2.136;2023-10-13T12:51:24;98256.63;;;14.27;82.83
41862;BME280;27537;57.134;-2.136;2023-10-13T12:53:57;98262.00;;;14.26;83.10
41862;BME280;27537;57.134;-2.136;2023-10-13T12:56:42;98268.41;;;14.03;84.38
41862;BME280;27537;57.134;-2.136;2023-10-13T12:59:09;98265.22;;;14.00;83.87
41862;BME280;27537;57.134;-2.136;2023-10-13T13:01:40;98258.56;;;14.15;84.68
41862;BME280;27537;57.134;-2.136;2023-10-13T13:04:10;98277.41;;;13.91;85.91
41862;BME280;27537;57.134;-2.136;2023-10-13T13:06:58;98271.16;;;13.63;88.98
41862;BME280;27537;57.134;-2.136;2023-10-13T13:09:25;98270.22;;;13.83;89.43
41862;BME280;27537;57.134;-2.136;2023-10-13T13:11:55;98262.84;;;13.97;92.04
41862;BME280;27537;57.134;-2.136;2023-10-13T13:14:25;98258.72;;;13.94;91.64
41862;BME280;27537;57.134;-2.136;2023-10-13T13:16:56;98259.00;;;13.81;91.99
41862;BME280;27537;57.134;-2.136;2023-10-13T13:19:41;98248.63;;;13.60;96.73
41862;BME280;27537;57.134;-2.136;2023-10-13T13:22:09;98260.78;;;13.81;99.94
41862;BME280;27537;57.134;-2.136;2023-10-13T13:24:42;98251.09;;;13.72;98.84
41862;BME280;27537;57.134;-2.136;2023-10-13T13:27:16;98272.00;;;13.73;100.00
41862;BME280;27537;57.134;-2.136;2023-10-13T13:29:51;98272.41;;;13.88;100.00
41862;BME280;27537;57.134;-2.136;2023-10-13T13:32:19;98267.59;;;13.64;100.00
41862;BME280;27537;57.134;-2.136;2023-10-13T13:34:51;98287.66;;;13.75;100.00
41862;BME280;27537;57.134;-2.136;2023-10-13T13:37:23;98283.22;;;13.85;100.00
41862;BME280;27537;57.134;-2.136;2023-10-13T13:39:54;98274.50;;;13.65;100.00
41862;BME280;27537;57.134;-2.136;2023-10-13T13:42:20;98290.66;;;13.41;100.00
41862;BME280;27537;57.134;-2.136;2023-10-13T13:44:47;98274.09;;;13.60;100.00
41862;BME280;27537;57.134;-2.136;2023-10-13T13:47:15;98283.34;;;13.64;100.00